Time;durP1;ratioP1;P1;durP2;ratioP2;P2;SDS_P1;SDS_P2;PMS_P1;PMS_P2;Temp;Humidity;BMP_temperature;BMP_pressure;BME280_temperature;BME280_humidity;BME280_pressure;Samples;Min_cycle;Max_cycle;Signal;HPM_P1;HPM_P2
2022/10/06 00:02:21;;;;;;;4.25;1.23;;;;;;;17.96;63.86;101991.13;5033653;28;20030;-71
2022/10/06 00:04:46;;;;;;;9.25;1.58;;;;;;;18.53;62.59;101992.66;5034303;28;20025;-69
2022/10/06 00:07:13;;;;;;;5.25;1.45;;;;;;;18.26;63.02;101999.78;5032900;28;20057;-70
2022/10/06 00:09:39;;;;;;;5.45;1.30;;;;;;;18.34;62.43;102010.25;5033084;28;20041;-71
2022/10/06 00:12:05;;;;;;;6.55;1.48;;;;;;;18.46;62.27;102007.47;5033461;28;20860;-69
2022/10/06 00:14:30;;;;;;;8.82;1.45;;;;;;;18.00;63.55;102011.34;5032804;28;20523;-69
2022/10/06 00:16:56;;;;;;;55.78;9.70;;;;;;;18.17;62.97;102023.88;5033371;28;20046;-70
2022/10/06 00:19:21;;;;;;;4.18;1.13;;;;;;;18.19;63.13;102029.06;5033363;28;20037;-71
2022/10/06 00:21:46;;;;;;;27.20;5.65;;;;;;;18.09;63.01;102037.06;5032093;28;20030;-71
2022/10/06 00:24:12;;;;;;;11.18;2.03;;;;;;;18.01;63.59;102042.91;5032491;28;20037;-69
2022/10/06 00:26:37;;;;;;;18.08;1.75;;;;;;;18.55;62.40;102042.22;5032863;28;20045;-69
2022/10/06 00:29:03;;;;;;;6.18;1.27;;;;;;;18.21;63.19;102046.81;5033759;28;20025;-70
2022/10/06 00:31:28;;;;;;;8.35;2.25;;;;;;;18.65;61.43;102061.44;5032945;28;20089;-70
2022/10/06 00:33:54;;;;;;;10.38;2.17;;;;;;;18.26;62.30;102056.94;5033188;28;20033;-70
2022/10/06 00:36:20;;;;;;;4.30;1.30;;;;;;;18.18;62.95;102069.06;5031622;28;20688;-69
2022/10/06 00:38:45;;;;;;;16.88;2.88;;;;;;;18.52;61.87;102063.66;5032794;28;20405;-70
2022/10/06 00:41:16;;;;;;;12.77;1.45;;;;;;;18.46;62.54;102073.66;5032454;28;20036;-69
2022/10/06 00:43:41;;;;;;;5.82;2.20;;;;;;;18.27;62.72;102073.03;5033346;28;20057;-70
2022/10/06 00:46:10;;;;;;;17.60;3.03;;;;;;;18.24;62.52;102083.56;5032545;28;20112;-71
2022/10/06 00:48:37;;;;;;;8.43;1.45;;;;;;;18.16;62.81;102089.44;5032605;28;20036;-71
2022/10/06 00:51:03;;;;;;;9.45;1.63;;;;;;;18.42;61.43;102100.53;5032494;28;20596;-70
2022/10/06 00:53:29;;;;;;;12.52;1.52;;;;;;;18.18;61.72;102100.91;5032465;28;20040;-72
2022/10/06 00:55:56;;;;;;;15.50;2.05;;;;;;;17.80;62.74;102108.88;5033047;28;20030;-72
2022/10/06 00:58:21;;;;;;;13.40;1.70;;;;;;;18.28;60.63;102112.78;5032433;28;20128;-72
2022/10/06 01:00:52;;;;;;;8.23;1.17;;;;;;;18.26;60.92;102111.34;5032413;28;20045;-72
2022/10/06 01:03:26;;;;;;;10.15;1.58;;;;;;;18.36;60.33;102119.72;5032438;28;20034;-72
2022/10/06 01:05:53;;;;;;;13.30;2.72;;;;;;;18.24;60.63;102127.09;5032439;28;20402;-72
2022/10/06 01:08:21;;;;;;;9.60;3.33;;;;;;;18.01;61.03;102143.53;5033193;28;20504;-73
2022/10/06 01:10:47;;;;;;;10.80;2.35;;;;;;;17.95;61.53;102142.63;5032771;28;20029;-71
2022/10/06 01:13:13;;;;;;;7.25;1.85;;;;;;;18.12;60.89;102151.66;5032198;28;20054;-72
2022/10/06 01:15:43;;;;;;;10.93;2.00;;;;;;;17.83;61.69;102151.88;5032050;28;20648;-71
2022/10/06 01:18:13;;;;;;;13.65;1.45;;;;;;;17.62;62.18;102149.81;5032233;28;20045;-70
2022/10/06 01:20:50;;;;;;;11.18;1.75;;;;;;;17.73;61.99;102151.69;5032080;28;20034;-71
2022/10/06 01:23:16;;;;;;;11.60;1.83;;;;;;;17.64;62.10;102166.72;5032488;28;20508;-71
2022/10/06 01:25:43;;;;;;;7.15;1.50;;;;;;;17.68;61.72;102173.31;5032242;28;20053;-70
2022/10/06 01:28:11;;;;;;;15.40;1.80;;;;;;;17.71;61.18;102167.41;5031897;28;20091;-72
2022/10/06 01:30:51;;;;;;;13.52;2.50;;;;;;;17.74;61.29;102167.75;5031870;28;20077;-73
2022/10/06 01:33:19;;;;;;;11.55;1.98;;;;;;;17.82;60.78;102172.00;5031873;28;20051;-73
2022/10/06 01:35:50;;;;;;;10.18;1.92;;;;;;;17.48;61.51;102177.25;5031954;28;20030;-71
2022/10/06 01:38:16;;;;;;;20.60;2.17;;;;;;;17.58;60.79;102179.38;5031642;28;20041;-71
2022/10/06 01:40:43;;;;;;;10.35;2.55;;;;;;;17.85;59.55;102190.53;5032301;28;20411;-71
2022/10/06 01:43:08;;;;;;;19.27;2.65;;;;;;;17.65;60.47;102195.56;5031937;28;20041;-73
2022/10/06 01:45:33;;;;;;;11.95;1.92;;;;;;;17.83;59.39;102200.81;5031602;28;20045;-71
2022/10/06 01:47:59;;;;;;;7.97;2.03;;;;;;;18.11;58.84;102203.59;5031252;28;20528;-72
2022/10/06 01:50:24;;;;;;;7.50;1.90;;;;;;;18.01;59.05;102204.22;5031323;28;20040;-71
2022/10/06 01:52:49;;;;;;;13.30;2.22;;;;;;;17.79;59.77;102205.91;5032026;28;20040;-71
2022/10/06 01:55:16;;;;;;;17.83;2.65;;;;;;;18.19;58.88;102205.94;5031803;28;20037;-72
2022/10/06 01:57:42;;;;;;;17.05;2.35;;;;;;;17.91;58.93;102214.06;5031683;28;20405;-72
2022/10/06 02:00:10;;;;;;;11.82;1.50;;;;;;;17.73;60.09;102216.94;5031648;28;20034;-72
2022/10/06 02:02:35;;;;;;;13.98;2.78;;;;;;;17.95;59.30;102217.94;5031363;28;20065;-72
2022/10/06 02:05:01;;;;;;;11.93;1.90;;;;;;;18.13;58.00;102218.63;5032866;28;20085;-71
2022/10/06 02:07:26;;;;;;;13.90;2.17;;;;;;;17.86;58.96;102222.94;5031594;28;20041;-71
2022/10/06 02:09:51;;;;;;;12.23;2.25;;;;;;;17.84;59.28;102226.97;5031583;28;20486;-70
2022/10/06 02:12:17;;;;;;;8.73;1.02;;;;;;;18.02;58.14;102226.81;5031529;28;20040;-72
2022/10/06 02:14:42;;;;;;;16.58;2.50;;;;;;;17.83;59.23;102233.47;5031495;28;20079;-73
2022/10/06 02:17:08;;;;;;;9.20;1.95;;;;;;;17.43;60.32;102234.16;5046759;28;20049;-72
2022/10/06 02:19:34;;;;;;;20.70;2.80;;;;;;;17.31;60.27;102238.81;5031235;28;20113;-72
2022/10/06 02:22:00;;;;;;;16.08;3.25;;;;;;;17.41;59.62;102249.88;5031487;28;20499;-73
2022/10/06 02:24:25;;;;;;;18.70;1.63;;;;;;;16.97;60.20;102253.16;5031411;28;20037;-71
2022/10/06 02:26:52;;;;;;;18.50;3.45;;;;;;;17.41;58.96;102259.94;5031352;28;20037;-72
2022/10/06 02:29:17;;;;;;;10.13;2.20;;;;;;;17.27;59.34;102256.63;5031368;28;20033;-72
2022/10/06 02:31:42;;;;;;;17.27;1.98;;;;;;;17.15;59.57;102261.22;5031773;28;20041;-70
2022/10/06 02:34:08;;;;;;;19.38;3.35;;;;;;;17.51;58.15;102271.91;5031238;28;20033;-70
2022/10/06 02:36:34;;;;;;;18.63;3.63;;;;;;;17.50;58.07;102270.25;5031329;28;20040;-70
2022/10/06 02:38:59;;;;;;;11.52;2.70;;;;;;;17.33;58.69;102268.44;5031201;28;20382;-72
2022/10/06 02:41:25;;;;;;;12.80;2.10;;;;;;;17.02;59.62;102272.28;5031304;28;20037;-72
2022/10/06 02:43:54;;;;;;;10.30;1.58;;;;;;;17.25;57.92;102283.22;5031260;28;20056;-72
2022/10/06 02:46:19;;;;;;;10.07;1.70;;;;;;;17.33;57.92;102288.31;5030059;28;20116;-72
2022/10/06 02:48:45;;;;;;;13.07;3.50;;;;;;;17.05;59.36;102292.72;5029900;28;20120;-70
2022/10/06 02:51:14;;;;;;;15.98;2.40;;;;;;;17.09;58.96;102294.75;5030173;28;20382;-72
2022/10/06 02:53:41;;;;;;;12.30;2.35;;;;;;;17.37;57.63;102291.38;5029804;28;20041;-72
2022/10/06 02:56:14;;;;;;;22.75;3.97;;;;;;;17.25;57.79;102298.69;5031074;28;20064;-73
2022/10/06 02:58:44;;;;;;;11.95;1.45;;;;;;;17.43;57.11;102309.47;5030199;28;20044;-73
2022/10/06 03:01:12;;;;;;;10.60;1.80;;;;;;;17.03;57.79;102309.25;5030911;28;20034;-73
2022/10/06 03:03:37;;;;;;;11.00;1.90;;;;;;;17.76;55.55;102317.91;5030052;28;20034;-71
2022/10/06 03:06:21;;;;;;;16.52;2.70;;;;;;;17.41;56.73;102319.75;5033875;28;20452;-72
2022/10/06 03:08:48;;;;;;;15.32;2.08;;;;;;;17.63;55.81;102326.28;5033767;28;20246;-73
2022/10/06 03:11:13;;;;;;;13.32;3.47;;;;;;;17.58;55.78;102331.59;5033728;28;20034;-72
2022/10/06 03:13:40;;;;;;;19.02;2.80;;;;;;;17.37;56.78;102332.97;5048904;28;20508;-71
2022/10/06 03:16:14;;;;;;;16.33;2.25;;;;;;;17.25;57.33;102339.44;5033713;28;20042;-73
2022/10/06 03:18:39;;;;;;;9.45;2.05;;;;;;;16.78;58.50;102338.47;5033548;28;20055;-72
2022/10/06 03:21:04;;;;;;;17.17;2.08;;;;;;;17.06;57.16;102352.25;5033305;28;20045;-72
2022/10/06 03:23:30;;;;;;;15.77;1.70;;;;;;;16.88;57.82;102346.88;5033371;28;20497;-72
2022/10/06 03:25:56;;;;;;;16.15;1.85;;;;;;;17.25;56.61;102347.59;5033601;28;20363;-72
2022/10/06 03:28:22;;;;;;;13.65;2.42;;;;;;;16.83;58.12;102363.03;5033473;28;20081;-72
2022/10/06 03:30:48;;;;;;;17.38;2.22;;;;;;;16.84;57.74;102361.97;5033217;28;20114;-71
2022/10/06 03:33:13;;;;;;;15.95;2.30;;;;;;;16.38;59.43;102367.09;5033003;28;20057;-73
2022/10/06 03:35:39;;;;;;;22.40;3.85;;;;;;;16.62;58.78;102371.66;5033157;28;20083;-73
2022/10/06 03:38:04;;;;;;;17.10;2.45;;;;;;;16.24;59.66;102376.44;5033472;28;20049;-72
2022/10/06 03:40:29;;;;;;;14.07;2.10;;;;;;;16.57;58.76;102375.03;5033056;28;20041;-73
2022/10/06 03:42:55;;;;;;;9.07;1.92;;;;;;;17.09;57.02;102373.53;5033209;28;20034;-71
2022/10/06 03:45:20;;;;;;;11.55;2.40;;;;;;;16.66;58.41;102372.84;5033076;28;20041;-72
2022/10/06 03:47:46;;;;;;;14.00;2.28;;;;;;;16.85;57.42;102381.78;5032872;28;20045;-72
2022/10/06 03:50:11;;;;;;;19.23;2.25;;;;;;;16.79;57.97;102382.69;5032608;28;20140;-73
2022/10/06 03:52:36;;;;;;;12.45;1.77;;;;;;;16.45;59.36;102384.16;5033224;28;20040;-73
2022/10/06 03:55:02;;;;;;;14.30;2.15;;;;;;;16.71;57.77;102402.84;5032834;28;20033;-72
2022/10/06 03:57:27;;;;;;;11.05;2.00;;;;;;;16.35;59.23;102394.69;5033425;28;20528;-71
2022/10/06 03:59:52;;;;;;;15.93;3.13;;;;;;;16.38;58.74;102400.50;5032908;28;20282;-73
2022/10/06 04:02:18;;;;;;;18.23;3.20;;;;;;;16.25;59.71;102411.50;5022725;28;20030;-72
2022/10/06 04:04:43;;;;;;;5.90;1.98;;;;;;;16.55;58.63;102415.16;5024004;28;20018;-73
2022/10/06 04:07:09;;;;;;;16.63;2.13;;;;;;;16.77;58.21;102426.38;5018267;28;20033;-70
2022/10/06 04:09:35;;;;;;;14.30;1.98;;;;;;;16.47;58.05;102423.56;5029398;28;20044;-71
2022/10/06 04:12:00;;;;;;;13.20;2.35;;;;;;;16.85;57.51;102427.94;5019905;28;20038;-71
2022/10/06 04:14:26;;;;;;;13.05;2.50;;;;;;;16.63;57.93;102433.84;5031114;28;20056;-72
2022/10/06 04:16:51;;;;;;;7.05;1.70;;;;;;;16.82;57.47;102426.53;5046167;28;20049;-72
2022/10/06 04:19:17;;;;;;;21.67;2.75;;;;;;;16.22;59.28;102441.78;5051296;28;20678;-71
2022/10/06 04:21:45;;;;;;;16.63;2.25;;;;;;;16.35;58.68;102440.81;5052012;28;20103;-71
2022/10/06 04:24:11;;;;;;;16.23;1.75;;;;;;;16.80;56.97;102438.69;5052349;28;20194;-71
2022/10/06 04:26:44;;;;;;;9.38;2.00;;;;;;;16.22;58.76;102439.06;5052026;28;20541;-72
2022/10/06 04:29:09;;;;;;;9.90;1.70;;;;;;;16.24;58.54;102455.94;5052769;28;20102;-72
2022/10/06 04:31:37;;;;;;;9.93;1.83;;;;;;;16.63;57.27;102455.56;5052292;28;20432;-72
2022/10/06 04:34:04;;;;;;;11.55;2.13;;;;;;;16.17;58.89;102463.31;5051703;28;20048;-71
2022/10/06 04:36:32;;;;;;;15.02;2.15;;;;;;;16.39;58.07;102464.56;5052156;28;20083;-72
2022/10/06 04:39:00;;;;;;;10.38;1.23;;;;;;;16.29;58.38;102466.97;5051990;28;20051;-71
2022/10/06 04:41:28;;;;;;;16.25;2.65;;;;;;;16.22;58.50;102468.06;5044532;28;20029;-71
2022/10/06 04:43:54;;;;;;;10.85;1.83;;;;;;;16.27;58.68;102477.22;5029960;28;20528;-70
2022/10/06 04:46:21;;;;;;;13.43;2.05;;;;;;;15.83;60.05;102485.50;5030939;28;20045;-73
2022/10/06 04:48:50;;;;;;;12.85;1.88;;;;;;;15.91;59.37;102493.38;5030602;28;20029;-73
2022/10/06 04:51:16;;;;;;;9.10;1.42;;;;;;;16.28;58.40;102497.84;5030770;28;20025;-73
2022/10/06 04:53:45;;;;;;;12.50;2.78;;;;;;;15.60;60.96;102509.63;5031040;28;20048;-72
2022/10/06 04:56:15;;;;;;;12.55;2.13;;;;;;;16.15;58.53;102511.53;5030648;28;20056;-72
2022/10/06 04:58:43;;;;;;;13.50;1.90;;;;;;;16.04;58.97;102514.94;5030151;28;20028;-71
2022/10/06 05:01:19;;;;;;;8.25;1.35;;;;;;;16.06;58.76;102515.56;5030151;28;20395;-73
2022/10/06 05:03:46;;;;;;;18.08;2.53;;;;;;;15.87;59.18;102508.41;5030576;28;20069;-73
2022/10/06 05:06:13;;;;;;;13.57;2.35;;;;;;;16.08;58.61;102521.59;5031108;28;20086;-73
2022/10/06 05:08:39;;;;;;;15.20;3.10;;;;;;;16.04;58.50;102523.09;5041228;28;20497;-72
2022/10/06 05:11:10;;;;;;;15.45;3.03;;;;;;;15.67;59.81;102529.38;5044533;28;20060;-71
2022/10/06 05:13:36;;;;;;;6.95;1.33;;;;;;;15.78;59.93;102534.94;5040310;28;20045;-73
2022/10/06 05:16:04;;;;;;;8.85;1.65;;;;;;;16.35;57.86;102525.75;5041184;28;20035;-73
2022/10/06 05:18:30;;;;;;;15.13;2.65;;;;;;;16.00;58.53;102542.75;5046518;28;20033;-73
2022/10/06 05:20:57;;;;;;;15.07;2.33;;;;;;;15.66;60.11;102547.53;5037589;28;20041;-72
2022/10/06 05:23:24;;;;;;;18.48;2.13;;;;;;;15.72;59.74;102543.94;5021139;28;20424;-70
2022/10/06 05:25:51;;;;;;;7.68;1.17;;;;;;;15.64;59.70;102549.66;5033682;28;20021;-72
2022/10/06 05:28:17;;;;;;;9.13;2.47;;;;;;;16.00;58.94;102551.69;5032775;28;20037;-73
2022/10/06 05:30:43;;;;;;;18.63;1.77;;;;;;;16.01;58.50;102556.06;5041834;28;20029;-73
2022/10/06 05:33:11;;;;;;;8.00;1.90;;;;;;;16.03;58.66;102556.69;5051411;28;20033;-73
2022/10/06 05:35:36;;;;;;;12.68;4.47;;;;;;;15.71;59.69;102557.72;5051852;28;20638;-72
2022/10/06 05:38:01;;;;;;;21.98;2.85;;;;;;;15.91;59.07;102563.84;5042233;28;20045;-73
2022/10/06 05:40:27;;;;;;;14.18;1.70;;;;;;;16.23;58.22;102564.69;5030786;28;20064;-74
2022/10/06 05:42:54;;;;;;;7.68;1.23;;;;;;;15.94;58.88;102573.44;5030919;28;20041;-71
2022/10/06 05:45:19;;;;;;;18.63;2.28;;;;;;;16.19;58.03;102568.88;5031015;28;20045;-71
2022/10/06 05:47:45;;;;;;;19.67;2.78;;;;;;;15.87;58.93;102572.63;5030623;28;20037;-71
2022/10/06 05:50:10;;;;;;;10.70;1.63;;;;;;;15.86;58.60;102579.13;5029297;28;20025;-72
2022/10/06 05:52:37;;;;;;;17.27;2.00;;;;;;;15.98;58.75;102586.31;5049566;28;20029;-71
2022/10/06 05:55:02;;;;;;;15.98;2.38;;;;;;;15.36;60.52;102594.31;5038501;28;20037;-73
2022/10/06 05:57:27;;;;;;;10.18;1.73;;;;;;;15.63;59.47;102599.47;5038576;28;20045;-72
2022/10/06 05:59:53;;;;;;;10.00;1.88;;;;;;;16.20;57.58;102605.78;5041025;28;20060;-71
2022/10/06 06:02:18;;;;;;;16.15;3.35;;;;;;;16.39;57.66;102607.56;5039877;28;20025;-73
2022/10/06 06:04:44;;;;;;;14.00;2.17;;;;;;;15.62;59.42;102614.06;5038248;28;20037;-73
2022/10/06 06:07:09;;;;;;;18.02;2.03;;;;;;;15.94;59.05;102614.13;5037491;28;20069;-71
2022/10/06 06:09:34;;;;;;;13.52;2.25;;;;;;;16.03;58.07;102627.19;5042253;28;20037;-72
2022/10/06 06:12:00;;;;;;;19.50;2.38;;;;;;;16.04;58.01;102623.44;5032426;28;20056;-71
2022/10/06 06:17:10;;;;;;;17.75;2.88;;;;;;;16.51;56.98;102639.19;5032408;28;20108;-73
2022/10/06 06:19:35;;;;;;;21.38;2.33;;;;;;;16.30;57.60;102639.53;5030526;28;20045;-73
2022/10/06 06:22:03;;;;;;;17.45;2.83;;;;;;;15.88;58.25;102633.97;5029873;28;20042;-72
2022/10/06 06:24:29;;;;;;;11.98;1.83;;;;;;;16.06;58.38;102643.03;5031652;28;20047;-71
2022/10/06 06:26:54;;;;;;;12.48;3.05;;;;;;;16.28;57.80;102644.34;5045433;28;20128;-72
2022/10/06 06:29:19;;;;;;;12.27;1.88;;;;;;;16.00;58.29;102646.59;5030302;28;20073;-72
2022/10/06 06:31:47;;;;;;;16.48;3.28;;;;;;;16.03;58.58;102650.75;5030531;28;20636;-72
2022/10/06 06:34:12;;;;;;;10.30;2.13;;;;;;;16.08;58.28;102657.19;5030210;28;20056;-73
2022/10/06 06:36:44;;;;;;;33.95;2.35;;;;;;;15.69;59.39;102652.81;5030143;28;20037;-71
2022/10/06 06:39:12;;;;;;;10.90;1.75;;;;;;;16.20;58.15;102666.31;5031491;28;20124;-72
2022/10/06 06:41:39;;;;;;;13.93;2.15;;;;;;;16.09;58.54;102671.59;5040244;28;20501;-72
2022/10/06 06:44:07;;;;;;;17.05;2.05;;;;;;;15.98;58.84;102673.09;5043422;28;20039;-72
2022/10/06 06:46:33;;;;;;;11.23;2.78;;;;;;;16.61;56.82;102672.13;5044108;28;20061;-74
2022/10/06 06:49:04;;;;;;;11.10;2.08;;;;;;;16.53;56.80;102679.69;5043701;28;20029;-75
2022/10/06 06:51:48;;;;;;;19.20;2.42;;;;;;;16.60;56.86;102677.78;5044194;28;20036;-77
2022/10/06 06:54:14;;;;;;;13.77;2.30;;;;;;;16.84;56.38;102679.69;5045932;28;20073;-76
2022/10/06 06:56:41;;;;;;;13.82;2.88;;;;;;;16.49;57.01;102695.59;5044053;28;20390;-74
2022/10/06 06:59:12;;;;;;;13.60;2.90;;;;;;;16.71;56.39;102693.34;5037971;28;20116;-77
2022/10/06 07:01:46;;;;;;;;;;;;;;;16.65;56.90;102692.34;5038795;28;20493;-74
2022/10/06 07:04:13;;;;;;;10.18;2.35;;;;;;;16.49;57.30;102705.63;5042010;28;20355;-75
2022/10/06 07:06:40;;;;;;;13.07;1.80;;;;;;;16.65;56.67;102700.47;5043366;28;20037;-77
2022/10/06 07:09:06;;;;;;;8.65;2.47;;;;;;;16.99;55.74;102703.75;5046276;28;20033;-76
2022/10/06 07:11:34;;;;;;;14.57;1.58;;;;;;;17.08;55.13;102705.16;5044076;28;20458;-74
2022/10/06 07:14:03;;;;;;;12.95;2.38;;;;;;;16.51;57.88;102715.19;5043860;28;20098;-73
2022/10/06 07:25:10;;;;;;;13.70;1.40;;;;;;;16.99;56.69;102710.03;5035005;28;20040;-77
2022/10/06 07:27:49;;;;;;;16.52;3.17;;;;;;;16.60;57.19;102724.75;5037230;28;20373;-76
2022/10/06 07:30:20;;;;;;;12.35;1.85;;;;;;;17.23;55.88;102725.50;5031771;28;20046;-75
2022/10/06 07:32:48;;;;;;;14.60;2.03;;;;;;;16.84;55.88;102738.56;5031453;28;20037;-76
2022/10/06 07:35:15;;;;;;;14.73;2.28;;;;;;;16.91;56.67;102740.19;5031792;28;20033;-75
2022/10/06 07:37:41;;;;;;;12.98;2.08;;;;;;;16.91;56.37;102742.91;5032652;28;20030;-74
2022/10/06 07:40:08;;;;;;;14.35;2.38;;;;;;;17.15;55.87;102743.97;5031976;28;20045;-75
2022/10/06 07:42:46;;;;;;;12.95;3.65;;;;;;;17.58;54.96;102731.25;5031835;28;20034;-75
2022/10/06 07:45:39;;;;;;;17.10;2.53;;;;;;;17.33;55.07;102744.84;5030774;28;20536;-75
2022/10/06 07:48:13;;;;;;;11.55;1.65;;;;;;;17.81;54.62;102752.34;5031371;28;20045;-75
2022/10/06 07:50:40;;;;;;;10.65;1.90;;;;;;;17.38;55.56;102761.31;5030676;28;20576;-73
2022/10/06 07:53:08;;;;;;;25.50;2.60;;;;;;;17.39;55.31;102767.59;5030743;28;20488;-78
2022/10/06 07:55:38;;;;;;;9.52;2.10;;;;;;;17.45;55.39;102772.94;5031440;28;20079;-75
2022/10/06 07:58:09;;;;;;;16.85;1.80;;;;;;;17.69;54.70;102776.69;5031772;28;20065;-75
2022/10/06 08:00:34;;;;;;;15.02;2.60;;;;;;;17.87;53.86;102787.59;5031110;28;20424;-75
2022/10/06 08:03:01;;;;;;;18.98;3.47;;;;;;;17.39;54.91;102797.47;5030804;28;20090;-76
2022/10/06 08:05:27;;;;;;;12.50;2.45;;;;;;;17.65;55.38;102797.25;5031619;28;20536;-76
2022/10/06 08:07:52;;;;;;;15.23;2.47;;;;;;;18.19;53.07;102797.28;5031455;28;20049;-77
2022/10/06 08:10:19;;;;;;;10.52;2.00;;;;;;;18.15;53.87;102806.13;5030016;28;20034;-75
2022/10/06 08:12:45;;;;;;;12.20;3.00;;;;;;;18.45;52.77;102804.31;5030263;28;20125;-76
2022/10/06 08:15:13;;;;;;;13.43;2.53;;;;;;;17.79;54.57;102803.41;5029003;28;20176;-76
2022/10/06 08:17:39;;;;;;;9.48;2.10;;;;;;;18.08;53.88;102803.47;5031107;28;20044;-75
2022/10/06 08:20:07;;;;;;;16.60;2.58;;;;;;;18.37;53.48;102810.88;5030701;28;20112;-74
2022/10/06 08:22:34;;;;;;;18.17;2.03;;;;;;;18.28;53.33;102812.22;5027864;28;20059;-75
2022/10/06 08:25:00;;;;;;;11.70;2.67;;;;;;;17.90;54.17;102818.97;5029456;28;20553;-76
2022/10/06 08:27:27;;;;;;;11.82;1.90;;;;;;;18.27;53.57;102820.63;5029155;28;20087;-75
2022/10/06 08:29:53;;;;;;;13.52;1.83;;;;;;;18.18;53.67;102816.56;5029674;28;20517;-76
2022/10/06 08:32:20;;;;;;;11.48;2.47;;;;;;;18.66;52.60;102814.69;5029065;28;20049;-75
2022/10/06 08:34:47;;;;;;;17.40;2.50;;;;;;;19.19;51.17;102825.63;5029137;28;20025;-74
2022/10/06 08:37:13;;;;;;;17.42;2.33;;;;;;;19.01;51.31;102836.59;5045034;28;20053;-77
2022/10/06 08:39:41;;;;;;;16.80;2.15;;;;;;;19.45;50.67;102827.97;5032921;28;20412;-74
2022/10/06 08:42:17;;;;;;;9.90;1.90;;;;;;;18.99;52.23;102822.38;5033188;28;20143;-76
2022/10/06 08:44:47;;;;;;;11.30;1.80;;;;;;;19.16;51.75;102840.56;5032887;28;20520;-76
2022/10/06 08:47:18;;;;;;;12.48;2.22;;;;;;;18.81;51.88;102834.16;5032769;28;20060;-75
2022/10/06 08:49:49;;;;;;;8.38;1.90;;;;;;;19.12;51.49;102833.09;5033435;28;20029;-76
2022/10/06 08:52:14;;;;;;;9.10;1.58;;;;;;;19.24;50.88;102832.03;5033187;28;20064;-74
2022/10/06 08:54:49;;;;;;;18.23;1.88;;;;;;;18.66;51.61;102852.00;5033424;28;20128;-75
2022/10/06 08:57:33;;;;;;;14.98;2.45;;;;;;;19.15;50.78;102846.25;5033353;28;20128;-74
2022/10/06 08:59:58;;;;;;;13.20;2.03;;;;;;;18.73;51.29;102848.13;5033245;28;20029;-73
2022/10/06 09:02:29;;;;;;;11.40;2.13;;;;;;;19.29;50.54;102854.00;5032704;28;20068;-76
2022/10/06 09:04:58;;;;;;;14.65;3.30;;;;;;;19.20;50.62;102847.22;5032934;28;20080;-77
2022/10/06 09:07:38;;;;;;;24.77;2.58;;;;;;;19.25;50.16;102850.09;5031941;28;20042;-75
2022/10/06 09:10:17;;;;;;;12.68;2.00;;;;;;;18.89;51.88;102869.28;5032259;28;20029;-76
2022/10/06 09:12:53;;;;;;;11.88;2.53;;;;;;;19.16;50.57;102869.72;5031539;28;20033;-73
2022/10/06 09:15:32;;;;;;;8.68;1.85;;;;;;;19.75;49.69;102872.31;5013802;28;20071;-73
2022/10/06 09:18:21;;;;;;;13.10;2.72;;;;;;;19.85;48.66;102891.69;5031945;28;20069;-75
2022/10/06 09:20:52;;;;;;;11.90;1.48;;;;;;;18.65;50.61;102904.81;5031652;28;20034;-74
2022/10/06 09:23:46;;;;;;;9.43;1.70;;;;;;;19.04;49.99;102899.69;5031374;28;20076;-74
2022/10/06 09:26:28;;;;;;;6.60;1.52;;;;;;;19.03;50.63;102902.63;5032029;28;20080;-75
2022/10/06 09:28:55;;;;;;;14.40;1.90;;;;;;;19.04;51.13;102904.28;5031803;28;20387;-72
2022/10/06 09:31:41;;;;;;;20.15;2.60;;;;;;;19.25;49.49;102899.16;5032246;28;20034;-75
2022/10/06 09:34:48;;;;;;;9.77;2.00;;;;;;;19.71;49.06;102901.19;5031317;28;20136;-74
2022/10/06 09:37:14;;;;;;;11.82;2.50;;;;;;;20.44;47.32;102898.78;4951001;29;20043;-75
2022/10/06 09:39:49;;;;;;;7.57;1.40;;;;;;;20.36;47.04;102901.06;4950898;29;20122;-73
2022/10/06 09:42:18;;;;;;;15.02;3.30;;;;;;;19.69;47.57;102900.59;4950298;29;20118;-75
2022/10/06 09:44:51;;;;;;;10.73;2.15;;;;;;;19.73;48.04;102901.78;4950280;29;20045;-74
2022/10/06 09:47:30;;;;;;;11.68;1.92;;;;;;;19.36;49.22;102899.44;4950522;29;20097;-74
2022/10/06 09:50:20;;;;;;;12.02;2.95;;;;;;;20.12;48.00;102900.22;4956359;28;20483;-73
2022/10/06 09:53:02;;;;;;;15.75;1.88;;;;;;;19.39;48.43;102898.97;4969674;28;20078;-74
2022/10/06 09:55:32;;;;;;;11.02;1.50;;;;;;;18.66;49.78;102901.00;4963609;28;20524;-75
2022/10/06 09:57:59;;;;;;;11.18;2.85;;;;;;;19.53;48.03;102914.91;4959453;28;20080;-74
2022/10/06 10:00:31;;;;;;;5.43;1.25;;;;;;;19.28;49.15;102904.13;4942866;29;20051;-76
2022/10/06 10:03:00;;;;;;;11.13;2.80;;;;;;;19.69;48.15;102914.22;4960580;28;20043;-75
2022/10/06 10:05:28;;;;;;;12.40;2.00;;;;;;;19.78;47.81;102915.53;4958351;28;20042;-76
2022/10/06 10:08:17;;;;;;;11.60;2.22;;;;;;;19.93;47.51;102909.63;4960269;28;20105;-72
2022/10/06 10:10:42;;;;;;;9.00;1.73;;;;;;;19.86;47.20;102917.06;4976448;28;20405;-75
2022/10/06 10:13:20;;;;;;;11.23;1.90;;;;;;;20.22;47.69;102911.41;5030729;28;20123;-75
2022/10/06 10:16:01;;;;;;;7.45;1.20;;;;;;;19.94;46.61;102919.44;5032869;28;20498;-76
2022/10/06 10:18:30;;;;;;;12.00;1.67;;;;;;;19.68;47.50;102917.16;5032713;28;20057;-75
2022/10/06 10:20:57;;;;;;;9.15;1.50;;;;;;;19.87;46.97;102922.28;5032064;28;20034;-75
2022/10/06 10:23:28;;;;;;;12.15;1.55;;;;;;;20.02;46.07;102910.91;5034913;28;20034;-75
2022/10/06 10:26:16;;;;;;;16.63;1.98;;;;;;;20.85;45.48;102922.31;5035265;28;20033;-75
2022/10/06 10:28:58;;;;;;;10.00;1.25;;;;;;;20.37;46.91;102928.13;5032743;28;20386;-68
2022/10/06 10:31:48;;;;;;;8.70;3.55;;;;;;;19.85;46.29;102924.41;5033750;28;20046;-70
2022/10/06 10:34:43;;;;;;;9.95;2.05;;;;;;;20.20;45.45;102926.38;5033882;28;20140;-71
2022/10/06 10:37:12;;;;;;;13.45;1.40;;;;;;;20.86;45.02;102923.97;5010999;28;20050;-69
2022/10/06 10:40:19;;;;;;;13.50;1.53;;;;;;;20.82;44.55;102937.28;5009876;28;20030;-68
2022/10/06 10:43:09;;;;;;;10.10;1.67;;;;;;;20.52;44.56;102930.38;4953261;28;20031;-68
2022/10/06 10:45:43;;;;;;;14.30;1.63;;;;;;;20.33;44.88;102935.13;4952838;28;20039;-68
2022/10/06 10:48:38;;;;;;;8.52;1.67;;;;;;;20.90;44.10;102925.97;4953590;28;20539;-71
2022/10/06 10:51:13;;;;;;;10.82;1.15;;;;;;;20.43;44.19;102943.56;4953028;28;20054;-68
2022/10/06 10:53:46;;;;;;;11.15;1.02;;;;;;;20.77;44.15;102934.47;4953152;28;20134;-68
2022/10/06 10:56:14;;;;;;;13.68;1.85;;;;;;;21.65;41.61;102936.69;4953239;28;20110;-69
2022/10/06 10:58:42;;;;;;;10.50;1.25;;;;;;;21.28;42.91;102939.06;4953969;29;20031;-70
2022/10/06 11:01:18;;;;;;;7.18;1.40;;;;;;;20.80;43.46;102955.00;4953403;28;20035;-72
2022/10/06 11:03:55;;;;;;;5.78;1.20;;;;;;;20.86;43.67;102941.19;4954010;28;20043;-73
2022/10/06 11:06:29;;;;;;;4.22;1.17;;;;;;;21.60;43.17;102945.63;4953904;28;20039;-73
2022/10/06 11:09:09;;;;;;;8.43;1.63;;;;;;;21.05;43.03;102950.06;4953795;28;20050;-68
2022/10/06 11:11:49;;;;;;;13.33;1.57;;;;;;;20.98;43.80;102947.47;4954041;28;20047;-72
2022/10/06 11:14:32;;;;;;;11.10;1.37;;;;;;;21.04;44.09;102962.09;4965129;28;20138;-69
2022/10/06 11:17:07;;;;;;;10.20;1.35;;;;;;;20.60;43.61;102966.31;4973895;28;20050;-70
2022/10/06 11:19:59;;;;;;;10.93;1.88;;;;;;;20.84;42.34;102951.56;5006197;28;20045;-70
2022/10/06 11:22:50;;;;;;;9.57;1.55;;;;;;;21.11;40.59;102959.22;5033245;28;20045;-70
2022/10/06 11:25:19;;;;;;;4.30;0.98;;;;;;;21.08;41.25;102941.41;4953389;28;20040;-69
2022/10/06 11:28:03;;;;;;;13.60;2.20;;;;;;;21.01;41.00;102954.41;4954396;28;20047;-69
2022/10/06 11:30:36;;;;;;;6.45;1.70;;;;;;;21.35;40.37;102956.13;4953790;28;20035;-69
2022/10/06 11:33:20;;;;;;;10.35;2.25;;;;;;;21.37;40.38;102948.50;4953315;28;20065;-70
2022/10/06 11:35:47;;;;;;;13.13;1.70;;;;;;;21.22;39.49;102945.50;4953628;29;20528;-69
2022/10/06 11:38:46;;;;;;;11.77;1.83;;;;;;;21.27;39.32;102959.25;4953514;29;20118;-67
2022/10/06 11:41:30;;;;;;;4.63;0.82;;;;;;;22.03;40.01;102960.63;4953465;29;20031;-71
2022/10/06 11:44:05;;;;;;;13.93;3.22;;;;;;;21.84;39.75;102960.88;4952817;29;20491;-71